This is the latest recevied weather packets stored in our database for station/object KI5NYZ-13. If no packets are shown the sender has not sent any weather packets the latest 1 day(s).
| Time | Temp. | Humidity | Pressure | Rain* | Wind** | Luminosity | Snow |
|---|---|---|---|---|---|---|---|
| 1778055280 | 12.22° C | 66% | 1009.9 hPa | 0 mm | 1.79 m/s, 104° | - | - |
| 1778053479 | 13.89° C | 63% | 1009.5 hPa | 0 mm | 0.89 m/s, 108° | - | - |
| 1778051678 | 15° C | 58% | 1009.1 hPa | 0 mm | 1.79 m/s, 108° | - | - |
| 1778049877 | 16.11° C | 54% | 1008.7 hPa | 0 mm | 1.79 m/s, 110° | - | - |
| 1778048076 | 17.22° C | 50% | 1007.9 hPa | 0 mm | 1.79 m/s, 109° | - | - |
| 1778046275 | 17.22° C | 48% | 1007.3 hPa | 0 mm | 0.89 m/s, 125° | - | - |
| 1778044474 | 18.89° C | 41% | 1006.1 hPa | 0 mm | 0.45 m/s, 217° | - | - |
| 1778042035 | 20° C | 38% | 1005.6 hPa | 0 mm | 0.89 m/s, 304° | - | - |
| 1778040234 | 20.56° C | 37% | 1005.2 hPa | 0 mm | 1.79 m/s, 305° | - | - |
| 1778038434 | 21.67° C | 34% | 1004.8 hPa | 0 mm | 3.13 m/s, 306° | - | - |
| 1778036633 | 21.11° C | 35% | 1005 hPa | 0 mm | 1.79 m/s, 300° | - | - |
| 1778034832 | 22.22° C | 33% | 1004.5 hPa | 0 mm | 2.24 m/s, 256° | - | - |
| 1778033031 | 22.78° C | 30% | 1003.8 hPa | 0 mm | 4.92 m/s, 229° | - | - |
| 1778031229 | 23.89° C | 27% | 1003.1 hPa | 0 mm | 4.47 m/s, 247° | - | - |
| 1778029429 | 24.44° C | 26% | 1002.5 hPa | 0 mm | 2.68 m/s, 245° | - | - |
| 1778027627 | 25.56° C | 25% | 1002.2 hPa | 0 mm | 2.68 m/s, 252° | - | - |
| 1778025827 | 26.11° C | 24% | 1002 hPa | 1.52 mm | 3.58 m/s, 261° | - | - |
| 1778024025 | 25.56° C | 24% | 1001.9 hPa | 2.03 mm | 4.02 m/s, 255° | - | - |
| 1778022224 | 25.56° C | 23% | 1001.9 hPa | 0.25 mm | 5.81 m/s, 282° | - | - |
| 1778020423 | 25.56° C | 22% | 1002.1 hPa | 0 mm | 5.36 m/s, 276° | - | - |
| 1778018622 | 26.11° C | 23% | 1002.4 hPa | 0 mm | 4.92 m/s, 280° | - | - |
| 1778016822 | 25.56° C | 24% | 1002.5 hPa | 0 mm | 3.58 m/s, 270° | - | - |
| 1778015020 | 26.67° C | 22% | 1002.3 hPa | 0 mm | 3.58 m/s, 264° | - | - |
| 1778013219 | 26.67° C | 22% | 1002.6 hPa | 0 mm | 3.58 m/s, 261° | - | - |
| 1778011418 | 26.67° C | 23% | 1002.7 hPa | 0 mm | 2.68 m/s, 248° | - | - |
* Rain latest hour (hover to see other rain measurements)
** Current wind speed in m/s (hover to see current wind gust speed)